^^
Datos históricos de la estación: Murcia-Puente Tocinos
Diario Informe para Abril 28, 2019 Unidades:  Ambas    Ingés   Métrico
Diario Semanal Mensual Anual
  Máxima: Mínima: Promedio:
Temperatura: 69.1 °F /  20.6 °C 50.5 °F /  10.3 °C 58.8 °F /  14.9 °C
Punto de rocio: 37.4 °F /  3 °C 27.3 °F /  -2.6 °C 31.6 °F /  -0.2 °C
Humedad: 49% 21% 37%
Velocidad viento: 19mph /  30.6km/h - 6.6mph /  10.6km/h
Racha viento: 33mph /  53.1km/h - -
Viento- - OSO
Presión: 30 in /  1016.0 hPa 29.8 in /  1010.3 hPa -
Precipitación: 0 in /  0.0 mm    
 
 
Tabla de datos para Abril 28, 2019
Hora Temperatura Punto de rocio Presión Viento Velocidad viento Racha viento Humedad Intensidad lluvia(por hora) Nubes
00:04 57.2 °F /  14 °C 29.8 °F /  -1.2 °C 30in /  1015.1hPa ONO 8.1mph /  13km/h 13mph /  20.9km/h 35% 0in /  0.0mm
00:09 57.2 °F /  14 °C 29.8 °F /  -1.2 °C 30in /  1015.1hPa ONO 7.7mph /  12.4km/h 13.8mph /  22.2km/h 35% 0in /  0.0mm
00:14 57.2 °F /  14 °C 29.8 °F /  -1.2 °C 30in /  1015.1hPa Oeste 7.4mph /  11.9km/h 14mph /  22.5km/h 35% 0in /  0.0mm
00:19 56.8 °F /  13.8 °C 29.7 °F /  -1.3 °C 30in /  1015.1hPa OSO 6.5mph /  10.5km/h 10.4mph /  16.7km/h 35.2% 0in /  0.0mm
00:24 56.8 °F /  13.8 °C 29.5 °F /  -1.4 °C 30in /  1015.1hPa Oeste 5.9mph /  9.5km/h 11.4mph /  18.3km/h 35% 0in /  0.0mm
00:29 56.8 °F /  13.8 °C 29.7 °F /  -1.3 °C 30in /  1015.1hPa Oeste 5.9mph /  9.5km/h 11.5mph /  18.5km/h 35.3% 0in /  0.0mm
00:34 57 °F /  13.9 °C 29.5 °F /  -1.4 °C 30in /  1015.3hPa OSO 5.9mph /  9.5km/h 12.7mph /  20.4km/h 35% 0in /  0.0mm
00:39 57.2 °F /  14 °C 29.8 °F /  -1.2 °C 30in /  1015.3hPa Oeste 6.5mph /  10.5km/h 13mph /  20.9km/h 35% 0in /  0.0mm
00:44 57.2 °F /  14 °C 29.8 °F /  -1.2 °C 30in /  1015.3hPa OSO 6.9mph /  11.1km/h 10mph /  16.1km/h 35% 0in /  0.0mm
00:49 56.8 °F /  13.8 °C 29.5 °F /  -1.4 °C 30in /  1015.3hPa OSO 6mph /  9.7km/h 11.5mph /  18.5km/h 35% 0in /  0.0mm
00:54 56.8 °F /  13.8 °C 29.3 °F /  -1.5 °C 30in /  1015.2hPa OSO 5.4mph /  8.7km/h 13.8mph /  22.2km/h 35% 0in /  0.0mm
00:59 56.8 °F /  13.8 °C 29.3 °F /  -1.5 °C 30in /  1015.2hPa Oeste 6mph /  9.7km/h 14mph /  22.5km/h 35% 0in /  0.0mm
01:04 56.5 °F /  13.6 °C 29.8 °F /  -1.2 °C 30in /  1015.4hPa Oeste 6.4mph /  10.3km/h 13mph /  20.9km/h 36% 0in /  0.0mm
01:09 56.1 °F /  13.4 °C 29.5 °F /  -1.4 °C 30in /  1015.4hPa Oeste 6.4mph /  10.3km/h 15mph /  24.1km/h 36% 0in /  0.0mm
01:14 55.9 °F /  13.3 °C 29.5 °F /  -1.4 °C 30in /  1015.4hPa OSO 6.4mph /  10.3km/h 15mph /  24.1km/h 36% 0in /  0.0mm
01:19 55.9 °F /  13.3 °C 29.3 °F /  -1.5 °C 30in /  1015.4hPa OSO 6.1mph /  9.8km/h 9.2mph /  14.8km/h 36% 0in /  0.0mm
01:24 55.9 °F /  13.3 °C 29.3 °F /  -1.5 °C 30in /  1015.3hPa OSO 5.9mph /  9.5km/h 11.5mph /  18.5km/h 36% 0in /  0.0mm
01:29 55.9 °F /  13.3 °C 29.3 °F /  -1.5 °C 30in /  1015.3hPa Oeste 5.5mph /  8.8km/h 12mph /  19.3km/h 36% 0in /  0.0mm
01:34 55.8 °F /  13.2 °C 29.8 °F /  -1.2 °C 30in /  1015.4hPa Oeste 5.2mph /  8.4km/h 9.2mph /  14.8km/h 36.9% 0in /  0.0mm
01:39 55.8 °F /  13.2 °C 29.8 °F /  -1.2 °C 30in /  1015.4hPa Oeste 4.9mph /  7.9km/h 9.2mph /  14.8km/h 37% 0in /  0.0mm
01:44 55.6 °F /  13.1 °C 29.7 °F /  -1.3 °C 30in /  1015.4hPa Oeste 4.7mph /  7.6km/h 10.4mph /  16.7km/h 37% 0in /  0.0mm
01:49 55.8 °F /  13.2 °C 29.8 °F /  -1.2 °C 30in /  1015.6hPa Oeste 5.1mph /  8.2km/h 10mph /  16.1km/h 37% 0in /  0.0mm
01:54 55.8 °F /  13.2 °C 29.8 °F /  -1.2 °C 30in /  1015.6hPa Oeste 5.4mph /  8.7km/h 10mph /  16.1km/h 37% 0in /  0.0mm
01:59 55.8 °F /  13.2 °C 30 °F /  -1.1 °C 30in /  1015.6hPa Oeste 5.4mph /  8.7km/h 10.4mph /  16.7km/h 37.2% 0in /  0.0mm
02:04 55.8 °F /  13.2 °C 30 °F /  -1.1 °C 30in /  1015.7hPa Oeste 5.4mph /  8.7km/h 15mph /  24.1km/h 37.2% 0in /  0.0mm
02:09 55.9 °F /  13.3 °C 30 °F /  -1.1 °C 30in /  1015.7hPa Oeste 6mph /  9.7km/h 15mph /  24.1km/h 37% 0in /  0.0mm
02:14 55.9 °F /  13.3 °C 30.2 °F /  -1 °C 30in /  1015.7hPa Oeste 6.4mph /  10.3km/h 9mph /  14.5km/h 37.4% 0in /  0.0mm
02:19 55.9 °F /  13.3 °C 30.7 °F /  -0.7 °C 30in /  1015.9hPa OSO 5.4mph /  8.7km/h 10.4mph /  16.7km/h 38% 0in /  0.0mm
02:24 55.9 °F /  13.3 °C 30.7 °F /  -0.7 °C 30in /  1015.9hPa Oeste 4.7mph /  7.6km/h 10mph /  16.1km/h 38% 0in /  0.0mm
02:29 55.9 °F /  13.3 °C 30.7 °F /  -0.7 °C 30in /  1015.9hPa Oeste 4.7mph /  7.6km/h 9.2mph /  14.8km/h 38% 0in /  0.0mm
02:34 55.8 °F /  13.2 °C 30.6 °F /  -0.8 °C 30in /  1015.9hPa OSO 4.7mph /  7.6km/h 8mph /  12.9km/h 38% 0in /  0.0mm
02:39 55.8 °F /  13.2 °C 30.6 °F /  -0.8 °C 30in /  1015.9hPa SO 3.7mph /  6km/h 6mph /  9.7km/h 38% 0in /  0.0mm
02:44 55.8 °F /  13.2 °C 31.1 °F /  -0.5 °C 30in /  1015.9hPa OSO 3.1mph /  5km/h 8.1mph /  13km/h 38.9% 0in /  0.0mm
02:49 55.8 °F /  13.2 °C 31.3 °F /  -0.4 °C 30in /  1015.9hPa OSO 3.4mph /  5.5km/h 8mph /  12.9km/h 39% 0in /  0.0mm
02:54 55.6 °F /  13.1 °C 31.1 °F /  -0.5 °C 30in /  1015.6hPa OSO 3.6mph /  5.8km/h 10.4mph /  16.7km/h 39% 0in /  0.0mm
02:59 55.4 °F /  13 °C 30.9 °F /  -0.6 °C 30in /  1015.6hPa Oeste 3.9mph /  6.2km/h 10.4mph /  16.7km/h 39.2% 0in /  0.0mm
03:04 55 °F /  12.8 °C 31.1 °F /  -0.5 °C 30in /  1015.6hPa OSO 4mph /  6.5km/h 7.4mph /  11.9km/h 40% 0in /  0.0mm
03:09 54.9 °F /  12.7 °C 31.1 °F /  -0.5 °C 30in /  1015.6hPa OSO 3.5mph /  5.6km/h 7mph /  11.3km/h 40% 0in /  0.0mm
03:14 54.9 °F /  12.7 °C 30.9 °F /  -0.6 °C 30in /  1015.6hPa OSO 3.1mph /  5km/h 5.8mph /  9.3km/h 40% 0in /  0.0mm
03:19 54.7 °F /  12.6 °C 30.7 °F /  -0.7 °C 30in /  1015.7hPa Oeste 2.7mph /  4.3km/h 6mph /  9.7km/h 40% 0in /  0.0mm
03:24 54.7 °F /  12.6 °C 31.3 °F /  -0.4 °C 30in /  1015.7hPa Oeste 2.4mph /  3.9km/h 4mph /  6.4km/h 40.7% 0in /  0.0mm
03:29 54.7 °F /  12.6 °C 31.3 °F /  -0.4 °C 30in /  1015.7hPa Oeste 2.1mph /  3.3km/h 3mph /  4.8km/h 41% 0in /  0.0mm
03:34 54.3 °F /  12.4 °C 31.3 °F /  -0.4 °C 30in /  1015.7hPa Oeste 1.8mph /  2.9km/h 4.6mph /  7.4km/h 41.1% 0in /  0.0mm
03:39 54.1 °F /  12.3 °C 31.6 °F /  -0.2 °C 30in /  1015.6hPa Este 1.9mph /  3.1km/h 5mph /  8km/h 42% 0in /  0.0mm
03:44 54.1 °F /  12.3 °C 31.5 °F /  -0.3 °C 30in /  1015.6hPa Este 2mph /  3.2km/h 5.9mph /  9.5km/h 42% 0in /  0.0mm
03:49 54 °F /  12.2 °C 31.5 °F /  -0.3 °C 30in /  1015.6hPa Este 2.5mph /  4.1km/h 6mph /  9.7km/h 42% 0in /  0.0mm
03:54 53.8 °F /  12.1 °C 31.6 °F /  -0.2 °C 30in /  1015.2hPa ENE 2.9mph /  4.7km/h 6.2mph /  10km/h 42.7% 0in /  0.0mm
03:59 53.4 °F /  11.9 °C 31.5 °F /  -0.3 °C 30in /  1015.2hPa ENE 3mph /  4.9km/h 6mph /  9.7km/h 43% 0in /  0.0mm
04:04 53.2 °F /  11.8 °C 31.5 °F /  -0.3 °C 30in /  1015.3hPa ENE 3.1mph /  5km/h 5mph /  8km/h 43% 0in /  0.0mm
04:09 53.2 °F /  11.8 °C 31.8 °F /  -0.1 °C 30in /  1015.3hPa ENE 2.4mph /  3.8km/h 5mph /  8km/h 44% 0in /  0.0mm
04:14 52.9 °F /  11.6 °C 31.6 °F /  -0.2 °C 30in /  1015.3hPa ENE 1.8mph /  2.9km/h 3.6mph /  5.8km/h 44.1% 0in /  0.0mm
04:19 52.7 °F /  11.5 °C 31.6 °F /  -0.2 °C 30in /  1015.5hPa ENE 1.6mph /  2.5km/h 4mph /  6.4km/h 44.7% 0in /  0.0mm
04:24 52.5 °F /  11.4 °C 31.8 °F /  -0.1 °C 30in /  1015.5hPa ENE 1.4mph /  2.2km/h 4.3mph /  6.9km/h 45% 0in /  0.0mm
04:29 52.3 °F /  11.3 °C 31.5 °F /  -0.3 °C 30in /  1015.5hPa OSO 1.4mph /  2.2km/h 10.4mph /  16.7km/h 44.7% 0in /  0.0mm
04:34 52.3 °F /  11.3 °C 31.5 °F /  -0.3 °C 30in /  1015.5hPa SO 1.4mph /  2.2km/h 15.6mph /  25.1km/h 44.6% 0in /  0.0mm
04:39 52.7 °F /  11.5 °C 31.5 °F /  -0.3 °C 30in /  1015.5hPa NO 3.7mph /  5.9km/h 16.1mph /  25.9km/h 44.3% 0in /  0.0mm
04:44 52.9 °F /  11.6 °C 31.5 °F /  -0.3 °C 30in /  1015.5hPa ONO 5.2mph /  8.4km/h 15mph /  24.1km/h 44% 0in /  0.0mm
04:49 52.9 °F /  11.6 °C 31.5 °F /  -0.3 °C 30in /  1015.6hPa Oeste 4.9mph /  7.9km/h 9.7mph /  15.6km/h 44.1% 0in /  0.0mm
04:54 53.1 °F /  11.7 °C 31.6 °F /  -0.2 °C 30in /  1015.6hPa Oeste 4.7mph /  7.6km/h 10mph /  16.1km/h 44% 0in /  0.0mm
04:59 53.2 °F /  11.8 °C 31.8 °F /  -0.1 °C 30in /  1015.6hPa ONO 5.2mph /  8.3km/h 11.5mph /  18.5km/h 44% 0in /  0.0mm
05:04 53.4 °F /  11.9 °C 31.8 °F /  -0.1 °C 30in /  1015.6hPa ONO 5.4mph /  8.7km/h 12mph /  19.3km/h 43.7% 0in /  0.0mm
05:09 53.6 °F /  12 °C 31.8 °F /  -0.1 °C 30in /  1015.6hPa NNO 5.3mph /  8.5km/h 11mph /  17.7km/h 43.3% 0in /  0.0mm
05:14 53.4 °F /  11.9 °C 32 °F /  0 °C 30in /  1015.6hPa NE 5.2mph /  8.4km/h 10mph /  16.1km/h 44% 0in /  0.0mm
05:19 52.9 °F /  11.6 °C 31.8 °F /  -0.1 °C 30in /  1015.7hPa NNO 3.6mph /  5.8km/h 8.1mph /  13km/h 44.6% 0in /  0.0mm
05:24 52.3 °F /  11.3 °C 32 °F /  0 °C 30in /  1015.7hPa North 2.4mph /  3.9km/h 8mph /  12.9km/h 45.5% 0in /  0.0mm
05:29 52 °F /  11.1 °C 32 °F /  0 °C 30in /  1015.7hPa North 3.1mph /  5km/h 8.1mph /  13km/h 46.4% 0in /  0.0mm
05:34 51.4 °F /  10.8 °C 32 °F /  0 °C 30in /  1015.8hPa NNE 3.6mph /  5.8km/h 7mph /  11.3km/h 47.4% 0in /  0.0mm
05:39 51.1 °F /  10.6 °C 32 °F /  0 °C 30in /  1015.8hPa NNO 3.2mph /  5.1km/h 5mph /  8km/h 48% 0in /  0.0mm
05:44 50.7 °F /  10.4 °C 31.8 °F /  -0.1 °C 30in /  1015.8hPa NO 2.9mph /  4.7km/h 5.9mph /  9.5km/h 48% 0in /  0.0mm
05:49 50.9 °F /  10.5 °C 31.8 °F /  -0.1 °C 30in /  1015.8hPa NNO 2.6mph /  4.2km/h 6mph /  9.7km/h 48% 0in /  0.0mm
05:54 51.1 °F /  10.6 °C 32.2 °F /  0.1 °C 30in /  1015.6hPa NE 2.4mph /  3.9km/h 6mph /  9.7km/h 48% 0in /  0.0mm
05:59 50.9 °F /  10.5 °C 32 °F /  0 °C 30in /  1015.6hPa NE 2.4mph /  3.9km/h 4mph /  6.4km/h 48% 0in /  0.0mm
06:04 50.9 °F /  10.5 °C 32 °F /  0 °C 30in /  1015.6hPa NE 2.4mph /  3.9km/h 4mph /  6.4km/h 48.4% 0in /  0.0mm
06:09 50.7 °F /  10.4 °C 32 °F /  0 °C 30in /  1015.2hPa NE 2.1mph /  3.3km/h 3mph /  4.8km/h 48.8% 0in /  0.0mm
06:14 50.7 °F /  10.4 °C 32.2 °F /  0.1 °C 30in /  1015.2hPa NE 1.8mph /  2.9km/h 2mph /  3.2km/h 49% 0in /  0.0mm
06:19 50.5 °F /  10.3 °C 32 °F /  0 °C 30in /  1015.2hPa NE 0.7mph /  1.2km/h 2.3mph /  3.7km/h 48.8% 0in /  0.0mm
06:24 50.5 °F /  10.3 °C 31.6 °F /  -0.2 °C 30in /  1014.8hPa Calm   6.9mph /  11.1km/h 48.1% 0in /  0.0mm
06:29 51.1 °F /  10.6 °C 31.6 °F /  -0.2 °C 30in /  1014.8hPa North 1.4mph /  2.3km/h 7mph /  11.3km/h 47.1% 0in /  0.0mm
06:34 51.3 °F /  10.7 °C 31.6 °F /  -0.2 °C 30in /  1015.1hPa NNO 2.4mph /  3.9km/h 7.4mph /  11.9km/h 47% 0in /  0.0mm
06:39 51.1 °F /  10.6 °C 31.6 °F /  -0.2 °C 30in /  1015.1hPa NNO 3.1mph /  5km/h 7mph /  11.3km/h 47.1% 0in /  0.0mm
06:44 50.7 °F /  10.4 °C 31.3 °F /  -0.4 °C 30in /  1015.1hPa NO 3.6mph /  5.8km/h 7mph /  11.3km/h 47.1% 0in /  0.0mm
06:49 51.1 °F /  10.6 °C 31.3 °F /  -0.4 °C 30in /  1015.5hPa NO 3.3mph /  5.3km/h 6.2mph /  10km/h 46.6% 0in /  0.0mm
06:54 51.6 °F /  10.9 °C 31.1 °F /  -0.5 °C 30in /  1015.5hPa NO 3.1mph /  5km/h 8.5mph /  13.7km/h 45.4% 0in /  0.0mm
06:59 52 °F /  11.1 °C 31.3 °F /  -0.4 °C 30in /  1015.5hPa NNO 3.7mph /  5.9km/h 9mph /  14.5km/h 45% 0in /  0.0mm
07:04 52.2 °F /  11.2 °C 31.3 °F /  -0.4 °C 30in /  1015.7hPa NO 4mph /  6.5km/h 6mph /  9.7km/h 45% 0in /  0.0mm
07:09 52 °F /  11.1 °C 30.9 °F /  -0.6 °C 30in /  1015.7hPa NO 3.4mph /  5.4km/h 6mph /  9.7km/h 44.4% 0in /  0.0mm
07:14 52.2 °F /  11.2 °C 31.1 °F /  -0.5 °C 30in /  1015.7hPa ONO 2.9mph /  4.7km/h 5mph /  8km/h 44.4% 0in /  0.0mm
07:19 52.3 °F /  11.3 °C 31.1 °F /  -0.5 °C 30in /  1015.7hPa NO 2.4mph /  3.8km/h 5.8mph /  9.3km/h 44% 0in /  0.0mm
07:24 52.5 °F /  11.4 °C 31.1 °F /  -0.5 °C 30in /  1015.6hPa Este 2mph /  3.2km/h 6mph /  9.7km/h 43.8% 0in /  0.0mm
07:29 52.7 °F /  11.5 °C 30.9 °F /  -0.6 °C 30in /  1015.6hPa SE 2.5mph /  4km/h 6mph /  9.7km/h 43.4% 0in /  0.0mm
07:34 52.5 °F /  11.4 °C 31.3 °F /  -0.4 °C 30in /  1015.8hPa Sur 2.9mph /  4.7km/h 6mph /  9.7km/h 44% 0in /  0.0mm
07:39 52.7 °F /  11.5 °C 30.7 °F /  -0.7 °C 30in /  1015.8hPa SO 3mph /  4.8km/h 6.2mph /  10km/h 43% 0in /  0.0mm
07:44 52.9 °F /  11.6 °C 30.9 °F /  -0.6 °C 30in /  1015.8hPa Sur 3.1mph /  5km/h 9.2mph /  14.8km/h 43% 0in /  0.0mm
07:49 53.1 °F /  11.7 °C 31.1 °F /  -0.5 °C 30in /  1015.8hPa SO 3.4mph /  5.5km/h 9mph /  14.5km/h 43% 0in /  0.0mm
07:54 53.2 °F /  11.8 °C 31.1 °F /  -0.5 °C 30in /  1015.7hPa SO 3.6mph /  5.8km/h 6.2mph /  10km/h 42.7% 0in /  0.0mm
07:59 53.2 °F /  11.8 °C 31.5 °F /  -0.3 °C 30in /  1015.7hPa Sur 3.6mph /  5.8km/h 7.4mph /  11.9km/h 43% 0in /  0.0mm
08:04 53.2 °F /  11.8 °C 31.3 °F /  -0.4 °C 30in /  1015.9hPa SSO 3.6mph /  5.8km/h 7mph /  11.3km/h 43% 0in /  0.0mm
08:09 53.1 °F /  11.7 °C 31.3 °F /  -0.4 °C 30in /  1015.9hPa SSO 4.2mph /  6.8km/h 7.4mph /  11.9km/h 43.5% 0in /  0.0mm
08:14 52.7 °F /  11.5 °C 31.5 °F /  -0.3 °C 30in /  1015.9hPa SO 4.7mph /  7.6km/h 8.5mph /  13.7km/h 44% 0in /  0.0mm
08:19 52.5 °F /  11.4 °C 31.3 °F /  -0.4 °C 30in /  1015.9hPa OSO 4.3mph /  6.9km/h 9mph /  14.5km/h 44% 0in /  0.0mm
08:24 52.5 °F /  11.4 °C 31.3 °F /  -0.4 °C 30in /  1015.8hPa SO 4mph /  6.5km/h 5.2mph /  8.4km/h 44.1% 0in /  0.0mm
08:29 52.3 °F /  11.3 °C 31.6 °F /  -0.2 °C 30in /  1015.8hPa OSO 3mph /  4.9km/h 5mph /  8km/h 45% 0in /  0.0mm
08:34 52.3 °F /  11.3 °C 31.5 °F /  -0.3 °C 30in /  1015.9hPa SSO 2.4mph /  3.9km/h 6.9mph /  11.1km/h 45% 0in /  0.0mm
08:39 52 °F /  11.1 °C 31.8 °F /  -0.1 °C 30in /  1015.9hPa Sur 2.8mph /  4.5km/h 7.4mph /  11.9km/h 46% 0in /  0.0mm
08:44 51.6 °F /  10.9 °C 31.6 °F /  -0.2 °C 30in /  1015.9hPa Sur 3.1mph /  5km/h 8.1mph /  13km/h 46.4% 0in /  0.0mm
08:49 51.1 °F /  10.6 °C 31.6 °F /  -0.2 °C 30in /  1015.9hPa Sur 4.3mph /  7km/h 8.5mph /  13.7km/h 47.2% 0in /  0.0mm
08:54 51.1 °F /  10.6 °C 32 °F /  0 °C 30in /  1015.9hPa Sur 5.2mph /  8.4km/h 11.4mph /  18.3km/h 47.9% 0in /  0.0mm
08:59 51.4 °F /  10.8 °C 31.8 °F /  -0.1 °C 30in /  1015.9hPa Sur 5.3mph /  8.6km/h 12mph /  19.3km/h 47.1% 0in /  0.0mm
09:04 52 °F /  11.1 °C 31.8 °F /  -0.1 °C 30in /  1016.0hPa Sur 5.4mph /  8.7km/h 10mph /  16.1km/h 46.2% 0in /  0.0mm
09:09 52 °F /  11.1 °C 32 °F /  0 °C 30in /  1016.0hPa Sur 5.7mph /  9.2km/h 9.7mph /  15.6km/h 46.4% 0in /  0.0mm
09:14 52 °F /  11.1 °C 32.4 °F /  0.2 °C 30in /  1016.0hPa Sur 5.9mph /  9.5km/h 10.4mph /  16.7km/h 47% 0in /  0.0mm
09:19 51.8 °F /  11 °C 32.2 °F /  0.1 °C 30in /  1016.0hPa Sur 5.9mph /  9.5km/h 10mph /  16.1km/h 47% 0in /  0.0mm
09:24 51.8 °F /  11 °C 32.2 °F /  0.1 °C 30in /  1015.9hPa Sur 5.9mph /  9.5km/h 10mph /  16.1km/h 47% 0in /  0.0mm
09:29 52 °F /  11.1 °C 32.4 °F /  0.2 °C 30in /  1015.9hPa Sur 5.6mph /  9km/h 9.2mph /  14.8km/h 47% 0in /  0.0mm
09:34 52.2 °F /  11.2 °C 32.4 °F /  0.2 °C 30in /  1015.9hPa SSO 5.4mph /  8.7km/h 9.7mph /  15.6km/h 46.8% 0in /  0.0mm
09:39 52.2 °F /  11.2 °C 32.5 °F /  0.3 °C 30in /  1015.9hPa SSO 5.7mph /  9.2km/h 10mph /  16.1km/h 46.9% 0in /  0.0mm
09:44 52.3 °F /  11.3 °C 32.5 °F /  0.3 °C 30in /  1015.9hPa SSO 5.9mph /  9.5km/h 9mph /  14.5km/h 46.6% 0in /  0.0mm
09:49 52.7 °F /  11.5 °C 32.4 °F /  0.2 °C 30in /  1015.9hPa SSO 5.5mph /  8.8km/h 9.7mph /  15.6km/h 46% 0in /  0.0mm
09:54 52.9 °F /  11.6 °C 32.5 °F /  0.3 °C 30in /  1015.6hPa SSO 5.2mph /  8.4km/h 10mph /  16.1km/h 46% 0in /  0.0mm
09:59 53.1 °F /  11.7 °C 32.9 °F /  0.5 °C 30in /  1015.6hPa Sur 5.3mph /  8.6km/h 10mph /  16.1km/h 46% 0in /  0.0mm
10:04 53.6 °F /  12 °C 32.7 °F /  0.4 °C 30in /  1015.6hPa Sur 5.4mph /  8.7km/h 7mph /  11.3km/h 45.1% 0in /  0.0mm
10:09 54 °F /  12.2 °C 33.1 °F /  0.6 °C 30in /  1015.5hPa Sur 4.8mph /  7.7km/h 7mph /  11.3km/h 45% 0in /  0.0mm
10:14 54.5 °F /  12.5 °C 33.1 °F /  0.6 °C 30in /  1015.5hPa SE 4.3mph /  6.9km/h 7.4mph /  11.9km/h 44.2% 0in /  0.0mm
10:19 54.9 °F /  12.7 °C 33.3 °F /  0.7 °C 30in /  1015.6hPa SE 4.2mph /  6.7km/h 7mph /  11.3km/h 44% 0in /  0.0mm
10:24 55.4 °F /  13 °C 33.6 °F /  0.9 °C 30in /  1015.6hPa SSE 4mph /  6.5km/h 7mph /  11.3km/h 43.5% 0in /  0.0mm
10:29 55.9 °F /  13.3 °C 33.6 °F /  0.9 °C 30in /  1015.6hPa Sur 3.5mph /  5.6km/h 6.9mph /  11.1km/h 43% 0in /  0.0mm
10:34 56.1 °F /  13.4 °C 33.4 °F /  0.8 °C 30in /  1015.6hPa SSO 3.1mph /  5km/h 10.4mph /  16.7km/h 42.2% 0in /  0.0mm
10:39 56.5 °F /  13.6 °C 33.4 °F /  0.8 °C 30in /  1015.2hPa SSO 4mph /  6.5km/h 10mph /  16.1km/h 41.8% 0in /  0.0mm
10:44 56.7 °F /  13.7 °C 33.1 °F /  0.6 °C 30in /  1015.2hPa Sur 4.7mph /  7.6km/h 9mph /  14.5km/h 41% 0in /  0.0mm
10:49 56.8 °F /  13.8 °C 33.3 °F /  0.7 °C 30in /  1015.2hPa Sur 5mph /  8km/h 9mph /  14.5km/h 40.8% 0in /  0.0mm
10:54 57.2 °F /  14 °C 33.3 °F /  0.7 °C 30in /  1015.2hPa SO 5.2mph /  8.4km/h 8mph /  12.9km/h 40.2% 0in /  0.0mm
10:59 57.4 °F /  14.1 °C 33.3 °F /  0.7 °C 30in /  1015.2hPa Oeste 4.2mph /  6.7km/h 6.2mph /  10km/h 40% 0in /  0.0mm
11:04 57.7 °F /  14.3 °C 33.3 °F /  0.7 °C 30in /  1015.2hPa SSO 3.6mph /  5.8km/h 7.4mph /  11.9km/h 39.5% 0in /  0.0mm
11:09 57.9 °F /  14.4 °C 33.4 °F /  0.8 °C 30in /  1015.1hPa Oeste 3.3mph /  5.3km/h 7mph /  11.3km/h 39.5% 0in /  0.0mm
11:14 58.3 °F /  14.6 °C 33.6 °F /  0.9 °C 30in /  1015.1hPa Oeste 3.1mph /  5km/h 5mph /  8km/h 39.3% 0in /  0.0mm
11:19 59 °F /  15 °C 33.8 °F /  1 °C 30in /  1015.1hPa Oeste 1.4mph /  2.2km/h 2.9mph /  4.7km/h 38.4% 0in /  0.0mm
11:24 59.4 °F /  15.2 °C 33.3 °F /  0.7 °C 30in /  1015.1hPa Calm   4.6mph /  7.4km/h 37.1% 0in /  0.0mm
11:29 59.5 °F /  15.3 °C 33.3 °F /  0.7 °C 30in /  1015.1hPa Oeste 0.8mph /  1.3km/h 5mph /  8km/h 37% 0in /  0.0mm
11:34 59.7 °F /  15.4 °C 33.4 °F /  0.8 °C 30in /  1015.1hPa SO 1.4mph /  2.2km/h 6.2mph /  10km/h 37% 0in /  0.0mm
11:39 59.5 °F /  15.3 °C 33.3 °F /  0.7 °C 30in /  1014.9hPa Sur 2.2mph /  3.6km/h 6.2mph /  10km/h 37.1% 0in /  0.0mm
11:44 59.7 °F /  15.4 °C 33.8 °F /  1 °C 30in /  1014.9hPa SO 2.9mph /  4.7km/h 6mph /  9.7km/h 37.8% 0in /  0.0mm
11:49 59.9 °F /  15.5 °C 33.3 °F /  0.7 °C 30in /  1014.9hPa ONO 2.9mph /  4.7km/h 11.8mph /  19km/h 36.6% 0in /  0.0mm
11:54 59.9 °F /  15.5 °C 32.9 °F /  0.5 °C 30in /  1014.9hPa OSO 2.9mph /  4.7km/h 13.5mph /  21.7km/h 36.1% 0in /  0.0mm
11:59 60.3 °F /  15.7 °C 32.9 °F /  0.5 °C 30in /  1014.9hPa OSO 5.1mph /  8.2km/h 14mph /  22.5km/h 35.9% 0in /  0.0mm
12:04 60.4 °F /  15.8 °C 33.1 °F /  0.6 °C 30in /  1014.9hPa SO 6.4mph /  10.3km/h 14mph /  22.5km/h 35.6% 0in /  0.0mm
12:09 60.6 °F /  15.9 °C 32.9 °F /  0.5 °C 30in /  1014.7hPa OSO 6.7mph /  10.8km/h 13mph /  20.9km/h 35% 0in /  0.0mm
12:14 61 °F /  16.1 °C 33.1 °F /  0.6 °C 30in /  1014.7hPa Oeste 6.9mph /  11.1km/h 13.8mph /  22.2km/h 35% 0in /  0.0mm
12:19 61.2 °F /  16.2 °C 33.3 °F /  0.7 °C 30in /  1014.7hPa OSO 7.3mph /  11.8km/h 17.8mph /  28.6km/h 34.9% 0in /  0.0mm
12:24 61.5 °F /  16.4 °C 32.7 °F /  0.4 °C 30in /  1014.2hPa Oeste 7.6mph /  12.2km/h 19mph /  30.6km/h 33.9% 0in /  0.0mm
12:29 61.7 °F /  16.5 °C 32.9 °F /  0.5 °C 30in /  1014.2hPa OSO 8.8mph /  14.2km/h 19mph /  30.6km/h 33.8% 0in /  0.0mm
12:34 62.1 °F /  16.7 °C 32.7 °F /  0.4 °C 30in /  1014.2hPa Oeste 9.7mph /  15.6km/h 18.5mph /  29.8km/h 33.1% 0in /  0.0mm
12:39 62.2 °F /  16.8 °C 32.5 °F /  0.3 °C 29.9in /  1013.7hPa OSO 9mph /  14.5km/h 19mph /  30.6km/h 32.6% 0in /  0.0mm
12:44 62.6 °F /  17 °C 32.5 °F /  0.3 °C 29.9in /  1013.7hPa OSO 8.5mph /  13.7km/h 14mph /  22.5km/h 32.3% 0in /  0.0mm
12:49 63 °F /  17.2 °C 32.2 °F /  0.1 °C 29.9in /  1013.7hPa OSO 7.1mph /  11.5km/h 20.7mph /  33.3km/h 31.4% 0in /  0.0mm
12:54 63.1 °F /  17.3 °C 32 °F /  0 °C 29.9in /  1013.7hPa OSO 6.2mph /  10km/h 21mph /  33.8km/h 31% 0in /  0.0mm
12:59 63.1 °F /  17.3 °C 32 °F /  0 °C 29.9in /  1013.7hPa Oeste 8.8mph /  14.1km/h 18.5mph /  29.8km/h 31% 0in /  0.0mm
13:04 63.1 °F /  17.3 °C 32 °F /  0 °C 29.9in /  1013.7hPa Oeste 10.2mph /  16.4km/h 22.5mph /  36.2km/h 31% 0in /  0.0mm
13:09 63 °F /  17.2 °C 31.8 °F /  -0.1 °C 29.9in /  1013.5hPa Oeste 11.4mph /  18.4km/h 23mph /  37km/h 31% 0in /  0.0mm
13:14 63 °F /  17.2 °C 32 °F /  0 °C 29.9in /  1013.5hPa Oeste 12.3mph /  19.8km/h 20.4mph /  32.8km/h 31.2% 0in /  0.0mm
13:19 63.3 °F /  17.4 °C 31.8 °F /  -0.1 °C 29.9in /  1013.5hPa OSO 9.7mph /  15.6km/h 20mph /  32.2km/h 30.6% 0in /  0.0mm
13:24 63.9 °F /  17.7 °C 31.8 °F /  -0.1 °C 29.9in /  1012.9hPa OSO 7.6mph /  12.2km/h 17.3mph /  27.8km/h 30.1% 0in /  0.0mm
13:29 64.2 °F /  17.9 °C 32 °F /  0 °C 29.9in /  1012.9hPa OSO 8.3mph /  13.3km/h 19.7mph /  31.7km/h 29.9% 0in /  0.0mm
13:34 64.8 °F /  18.2 °C 31.3 °F /  -0.4 °C 29.9in /  1012.9hPa OSO 8.7mph /  14km/h 20.7mph /  33.3km/h 28.6% 0in /  0.0mm
13:39 64.9 °F /  18.3 °C 31.6 °F /  -0.2 °C 29.9in /  1012.4hPa OSO 9.9mph /  15.9km/h 21mph /  33.8km/h 28.7% 0in /  0.0mm
13:44 65.3 °F /  18.5 °C 31.3 °F /  -0.4 °C 29.9in /  1012.4hPa OSO 10.7mph /  17.2km/h 25.3mph /  40.7km/h 28% 0in /  0.0mm
13:49 65.7 °F /  18.7 °C 31.1 °F /  -0.5 °C 29.9in /  1012.4hPa OSO 11.3mph /  18.2km/h 25.6mph /  41.2km/h 27.5% 0in /  0.0mm
13:54 65.7 °F /  18.7 °C 30.7 °F /  -0.7 °C 29.9in /  1012.1hPa OSO 11.8mph /  19km/h 26.5mph /  42.6km/h 27% 0in /  0.0mm
13:59 65.8 °F /  18.8 °C 30.7 °F /  -0.7 °C 29.9in /  1012.1hPa Oeste 12.6mph /  20.2km/h 29.1mph /  46.8km/h 26.8% 0in /  0.0mm
14:04 66 °F /  18.9 °C 30.2 °F /  -1 °C 29.9in /  1012.1hPa Oeste 13mph /  20.9km/h 29mph /  46.7km/h 26.1% 0in /  0.0mm
14:09 66.2 °F /  19 °C 30.2 °F /  -1 °C 29.9in /  1011.6hPa Oeste 14.3mph /  23km/h 28mph /  45.1km/h 26% 0in /  0.0mm
14:14 66.4 °F /  19.1 °C 30 °F /  -1.1 °C 29.9in /  1011.6hPa ONO 15.2mph /  24.5km/h 29.1mph /  46.8km/h 25.5% 0in /  0.0mm
14:19 66.4 °F /  19.1 °C 29.5 °F /  -1.4 °C 29.9in /  1011.6hPa ONO 16.9mph /  27.2km/h 31.3mph /  50.4km/h 25% 0in /  0.0mm
14:24 66.6 °F /  19.2 °C 29.5 °F /  -1.4 °C 29.9in /  1011.4hPa ONO 18.1mph /  29.1km/h 32.4mph /  52.1km/h 24.7% 0in /  0.0mm
14:29 66.9 °F /  19.4 °C 28.9 °F /  -1.7 °C 29.9in /  1011.4hPa ONO 17.9mph /  28.8km/h 32mph /  51.5km/h 24.1% 0in /  0.0mm
14:34 66.9 °F /  19.4 °C 28.9 °F /  -1.7 °C 29.9in /  1011.4hPa Oeste 17.8mph /  28.6km/h 31.3mph /  50.4km/h 24% 0in /  0.0mm
14:39 67.1 °F /  19.5 °C 28.9 °F /  -1.7 °C 29.9in /  1010.9hPa ONO 18mph /  28.9km/h 32.7mph /  52.6km/h 24% 0in /  0.0mm
14:44 67.5 °F /  19.7 °C 28.4 °F /  -2 °C 29.9in /  1010.9hPa Oeste 18.1mph /  29.1km/h 33mph /  53.1km/h 23.1% 0in /  0.0mm
14:49 67.5 °F /  19.7 °C 28.2 °F /  -2.1 °C 29.9in /  1010.9hPa Oeste 18.6mph /  30km/h 32mph /  51.5km/h 22.9% 0in /  0.0mm
14:54 67.6 °F /  19.8 °C 28 °F /  -2.2 °C 29.8in /  1010.5hPa Oeste 19mph /  30.6km/h 28mph /  45.1km/h 22.5% 0in /  0.0mm
14:59 68 °F /  20 °C 28.2 °F /  -2.1 °C 29.8in /  1010.5hPa Oeste 17.3mph /  27.8km/h 29.1mph /  46.8km/h 22.4% 0in /  0.0mm
15:04 68.2 °F /  20.1 °C 28 °F /  -2.2 °C 29.8in /  1010.5hPa Oeste 16.3mph /  26.2km/h 29mph /  46.7km/h 22.1% 0in /  0.0mm
15:09 68.2 °F /  20.1 °C 28 °F /  -2.2 °C 29.8in /  1010.5hPa ONO 15.9mph /  25.6km/h 29mph /  46.7km/h 22.1% 0in /  0.0mm
15:14 68.2 °F /  20.1 °C 28.6 °F /  -1.9 °C 29.8in /  1010.5hPa ONO 15.6mph /  25.1km/h 26mph /  41.8km/h 22.7% 0in /  0.0mm
15:19 68.2 °F /  20.1 °C 28.2 °F /  -2.1 °C 29.8in /  1010.5hPa ONO 14.7mph /  23.6km/h 21.9mph /  35.2km/h 22.3% 0in /  0.0mm
15:24 68.4 °F /  20.2 °C 28.9 °F /  -1.7 °C 29.8in /  1010.3hPa Oeste 14mph /  22.5km/h 22mph /  35.4km/h 22.9% 0in /  0.0mm
15:29 68.5 °F /  20.3 °C 28.4 °F /  -2 °C 29.8in /  1010.3hPa ONO 13.7mph /  22.1km/h 24.6mph /  39.6km/h 22.1% 0in /  0.0mm
15:34 68.4 °F /  20.2 °C 28 °F /  -2.2 °C 29.8in /  1010.3hPa ONO 13.5mph /  21.7km/h 25.6mph /  41.2km/h 22% 0in /  0.0mm
15:39 68.5 °F /  20.3 °C 28.2 °F /  -2.1 °C 29.8in /  1010.3hPa ONO 13.8mph /  22.2km/h 26mph /  41.8km/h 22% 0in /  0.0mm
15:44 68.5 °F /  20.3 °C 28.2 °F /  -2.1 °C 29.8in /  1010.3hPa ONO 14mph /  22.5km/h 25mph /  40.2km/h 22% 0in /  0.0mm
15:49 68.9 °F /  20.5 °C 28.4 °F /  -2 °C 29.8in /  1010.3hPa ONO 13.7mph /  22.1km/h 23mph /  37km/h 22% 0in /  0.0mm
15:54 69.1 °F /  20.6 °C 28.4 °F /  -2 °C 29.8in /  1010.3hPa ONO 13.5mph /  21.7km/h 22mph /  35.4km/h 21.8% 0in /  0.0mm
15:59 69.1 °F /  20.6 °C 27.9 °F /  -2.3 °C 29.8in /  1010.3hPa Oeste 13.2mph /  21.2km/h 25.3mph /  40.7km/h 21.3% 0in /  0.0mm
16:04 69.1 °F /  20.6 °C 27.5 °F /  -2.5 °C 29.8in /  1010.3hPa ONO 13mph /  20.9km/h 26.5mph /  42.6km/h 21% 0in /  0.0mm
16:09 68.9 °F /  20.5 °C 27.3 °F /  -2.6 °C 29.8in /  1010.3hPa ONO 15.3mph /  24.6km/h 27.9mph /  44.9km/h 21% 0in /  0.0mm
16:14 68.9 °F /  20.5 °C 27.3 °F /  -2.6 °C 29.8in /  1010.3hPa ONO 17mph /  27.4km/h 28mph /  45.1km/h 21% 0in /  0.0mm
16:19 68.7 °F /  20.4 °C 27.7 °F /  -2.4 °C 29.8in /  1010.5hPa ONO 16.2mph /  26.1km/h 23mph /  37km/h 21.4% 0in /  0.0mm
16:24 68.7 °F /  20.4 °C 28.4 °F /  -2 °C 29.8in /  1010.5hPa ONO 15.6mph /  25.1km/h 22.3mph /  35.9km/h 22% 0in /  0.0mm
16:29 68.9 °F /  20.5 °C 28.4 °F /  -2 °C 29.8in /  1010.5hPa Oeste 13.2mph /  21.3km/h 22mph /  35.4km/h 22% 0in /  0.0mm
16:34 68.7 °F /  20.4 °C 28.4 °F /  -2 °C 29.8in /  1010.6hPa Oeste 11.4mph /  18.4km/h 26.5mph /  42.6km/h 22.1% 0in /  0.0mm
16:39 68.5 °F /  20.3 °C 29.1 °F /  -1.6 °C 29.8in /  1010.6hPa ONO 11.4mph /  18.4km/h 26mph /  41.8km/h 22.9% 0in /  0.0mm
16:44 68.5 °F /  20.3 °C 29.1 °F /  -1.6 °C 29.8in /  1010.6hPa ONO 11.4mph /  18.4km/h 18mph /  29km/h 23% 0in /  0.0mm
16:49 68.4 °F /  20.2 °C 28.6 °F /  -1.9 °C 29.9in /  1010.9hPa ONO 9.9mph /  15.9km/h 20.7mph /  33.3km/h 22.4% 0in /  0.0mm
16:54 68.4 °F /  20.2 °C 28.9 °F /  -1.7 °C 29.9in /  1010.9hPa Oeste 8.7mph /  14km/h 21mph /  33.8km/h 23% 0in /  0.0mm
16:59 68.2 °F /  20.1 °C 28.9 °F /  -1.7 °C 29.9in /  1010.9hPa ONO 10.3mph /  16.5km/h 18mph /  29km/h 23% 0in /  0.0mm
17:04 68.2 °F /  20.1 °C 28.9 °F /  -1.7 °C 29.9in /  1011.2hPa Oeste 11.2mph /  18km/h 18.4mph /  29.6km/h 23% 0in /  0.0mm
17:09 68.2 °F /  20.1 °C 29.1 °F /  -1.6 °C 29.9in /  1011.2hPa NO 10.1mph /  16.2km/h 18mph /  29km/h 23.1% 0in /  0.0mm
17:14 68 °F /  20 °C 29.8 °F /  -1.2 °C 29.9in /  1011.2hPa NO 9.2mph /  14.8km/h 17.3mph /  27.8km/h 24% 0in /  0.0mm
17:19 67.8 °F /  19.9 °C 29.7 °F /  -1.3 °C 29.9in /  1011.4hPa NO 9.2mph /  14.8km/h 17mph /  27.4km/h 24% 0in /  0.0mm
17:24 67.5 °F /  19.7 °C 29.5 °F /  -1.4 °C 29.9in /  1011.4hPa NO 9.2mph /  14.8km/h 13mph /  20.9km/h 24% 0in /  0.0mm
17:29 67.5 °F /  19.7 °C 29.5 °F /  -1.4 °C 29.9in /  1011.4hPa NO 7.6mph /  12.3km/h 13mph /  20.9km/h 24.1% 0in /  0.0mm
17:34 67.3 °F /  19.6 °C 29.7 °F /  -1.3 °C 29.9in /  1011.5hPa NO 6.4mph /  10.3km/h 12mph /  19.3km/h 24.5% 0in /  0.0mm
17:39 66.9 °F /  19.4 °C 30 °F /  -1.1 °C 29.9in /  1011.5hPa NNO 6.3mph /  10.1km/h 12.3mph /  19.8km/h 25% 0in /  0.0mm
17:44 66.9 °F /  19.4 °C 29.8 °F /  -1.2 °C 29.9in /  1011.5hPa NO 6.2mph /  10km/h 12mph /  19.3km/h 25% 0in /  0.0mm
17:49 66.7 °F /  19.3 °C 29.8 °F /  -1.2 °C 29.9in /  1011.5hPa NO 6.2mph /  10km/h 12mph /  19.3km/h 25% 0in /  0.0mm
17:54 66.7 °F /  19.3 °C 30.7 °F /  -0.7 °C 29.9in /  1011.5hPa NO 6.2mph /  10km/h 9mph /  14.5km/h 26% 0in /  0.0mm
17:59 66.6 °F /  19.2 °C 30.6 °F /  -0.8 °C 29.9in /  1011.5hPa ONO 5mph /  8.1km/h 8.5mph /  13.7km/h 26% 0in /  0.0mm
18:04 66.4 °F /  19.1 °C 30.4 °F /  -0.9 °C 29.9in /  1011.7hPa NO 4.3mph /  6.9km/h 11.8mph /  19km/h 26% 0in /  0.0mm
18:09 66 °F /  18.9 °C 29.8 °F /  -1.2 °C 29.9in /  1011.7hPa NO 4.8mph /  7.8km/h 15.2mph /  24.5km/h 25.7% 0in /  0.0mm
18:14 65.8 °F /  18.8 °C 28.9 °F /  -1.7 °C 29.9in /  1011.7hPa NO 5.2mph /  8.4km/h 24.2mph /  38.9km/h 25% 0in /  0.0mm
18:19 65.5 °F /  18.6 °C 28.8 °F /  -1.8 °C 29.9in /  1012.2hPa NO 8mph /  12.9km/h 24mph /  38.6km/h 25% 0in /  0.0mm
18:24 65.1 °F /  18.4 °C 29.3 °F /  -1.5 °C 29.9in /  1012.2hPa NNO 10mph /  16.1km/h 17mph /  27.4km/h 25.9% 0in /  0.0mm
18:29 64.8 °F /  18.2 °C 29.1 °F /  -1.6 °C 29.9in /  1012.2hPa NO 9.1mph /  14.7km/h 16mph /  25.7km/h 26% 0in /  0.0mm
18:34 64.6 °F /  18.1 °C 29.7 °F /  -1.3 °C 29.9in /  1012.6hPa NO 8.5mph /  13.7km/h 12mph /  19.3km/h 26.9% 0in /  0.0mm
18:39 64.4 °F /  18 °C 29.7 °F /  -1.3 °C 29.9in /  1012.6hPa NO 7.1mph /  11.5km/h 12mph /  19.3km/h 27% 0in /  0.0mm
18:44 64 °F /  17.8 °C 29.5 °F /  -1.4 °C 29.9in /  1012.6hPa ONO 6.2mph /  10km/h 9.2mph /  14.8km/h 27% 0in /  0.0mm
18:49 64 °F /  17.8 °C 29.8 °F /  -1.2 °C 29.9in /  1012.9hPa ONO 5.3mph /  8.6km/h 9mph /  14.5km/h 27.6% 0in /  0.0mm
18:54 63.9 °F /  17.7 °C 30.2 °F /  -1 °C 29.9in /  1012.9hPa ONO 4.7mph /  7.6km/h 6.4mph /  10.3km/h 28% 0in /  0.0mm
18:59 63.9 °F /  17.7 °C 30 °F /  -1.1 °C 29.9in /  1012.9hPa Oeste 4mph /  6.4km/h 9.2mph /  14.8km/h 28% 0in /  0.0mm
19:04 63.9 °F /  17.7 °C 30 °F /  -1.1 °C 29.9in /  1013.2hPa OSO 3.6mph /  5.8km/h 9.7mph /  15.6km/h 28% 0in /  0.0mm
19:09 63.5 °F /  17.5 °C 30.4 °F /  -0.9 °C 29.9in /  1013.2hPa Oeste 4.9mph /  7.9km/h 16.1mph /  25.9km/h 28.7% 0in /  0.0mm
19:14 63.3 °F /  17.4 °C 30.6 °F /  -0.8 °C 29.9in /  1013.2hPa OSO 5.9mph /  9.5km/h 16mph /  25.7km/h 29% 0in /  0.0mm
19:19 63.1 °F /  17.3 °C 30.7 °F /  -0.7 °C 29.9in /  1013.2hPa OSO 7.8mph /  12.5km/h 18.4mph /  29.6km/h 29.3% 0in /  0.0mm
19:24 63 °F /  17.2 °C 30.9 °F /  -0.6 °C 29.9in /  1013.2hPa Oeste 9.2mph /  14.8km/h 18mph /  29km/h 30% 0in /  0.0mm
19:29 62.6 °F /  17 °C 31.5 °F /  -0.3 °C 29.9in /  1013.2hPa ONO 9.7mph /  15.6km/h 18.4mph /  29.6km/h 31% 0in /  0.0mm
19:34 62.4 °F /  16.9 °C 31.8 °F /  -0.1 °C 29.9in /  1013.3hPa ONO 10mph /  16.1km/h 18mph /  29km/h 31.6% 0in /  0.0mm
19:39 62.1 °F /  16.7 °C 32.2 °F /  0.1 °C 29.9in /  1013.3hPa ONO 9.6mph /  15.4km/h 20.8mph /  33.5km/h 32.3% 0in /  0.0mm
19:44 61.9 °F /  16.6 °C 32.9 °F /  0.5 °C 29.9in /  1013.3hPa ONO 9.2mph /  14.8km/h 21.3mph /  34.3km/h 33.6% 0in /  0.0mm
19:49 61.7 °F /  16.5 °C 33.4 °F /  0.8 °C 29.9in /  1013.7hPa Oeste 11.1mph /  17.8km/h 24.6mph /  39.6km/h 34.6% 0in /  0.0mm
19:54 61.3 °F /  16.3 °C 33.8 °F /  1 °C 29.9in /  1013.7hPa ONO 12.5mph /  20.1km/h 25mph /  40.2km/h 35.4% 0in /  0.0mm
19:59 61.2 °F /  16.2 °C 34.3 °F /  1.3 °C 29.9in /  1013.7hPa Oeste 11.8mph /  19km/h 21mph /  33.8km/h 36.4% 0in /  0.0mm
20:04 61 °F /  16.1 °C 34.5 °F /  1.4 °C 30in /  1014.3hPa Oeste 11.4mph /  18.4km/h 20.7mph /  33.3km/h 37% 0in /  0.0mm
20:09 60.6 °F /  15.9 °C 34.9 °F /  1.6 °C 30in /  1014.3hPa Oeste 10.6mph /  17km/h 21.3mph /  34.3km/h 37.9% 0in /  0.0mm
20:14 60.4 °F /  15.8 °C 34.9 °F /  1.6 °C 30in /  1014.3hPa Oeste 10mph /  16.1km/h 21mph /  33.8km/h 38.2% 0in /  0.0mm
20:19 60.3 °F /  15.7 °C 35.2 °F /  1.8 °C 30in /  1014.6hPa Oeste 9.1mph /  14.7km/h 16mph /  25.7km/h 39% 0in /  0.0mm
20:24 60.1 °F /  15.6 °C 35.2 °F /  1.8 °C 30in /  1014.6hPa Oeste 8.5mph /  13.7km/h 15.2mph /  24.5km/h 39.2% 0in /  0.0mm
20:29 59.9 °F /  15.5 °C 35.6 °F /  2 °C 30in /  1014.6hPa Oeste 8mph /  12.8km/h 15mph /  24.1km/h 40% 0in /  0.0mm
20:34 59.7 °F /  15.4 °C 35.2 °F /  1.8 °C 30in /  1014.7hPa Oeste 7.6mph /  12.2km/h 12mph /  19.3km/h 40% 0in /  0.0mm
20:39 59.5 °F /  15.3 °C 35.2 °F /  1.8 °C 30in /  1014.7hPa Oeste 6.9mph /  11.1km/h 12mph /  19.3km/h 40% 0in /  0.0mm
20:44 59.5 °F /  15.3 °C 35.2 °F /  1.8 °C 30in /  1014.7hPa Oeste 6.4mph /  10.3km/h 15.2mph /  24.5km/h 40% 0in /  0.0mm
20:49 59.5 °F /  15.3 °C 35.6 °F /  2 °C 30in /  1014.7hPa Oeste 7.1mph /  11.4km/h 15mph /  24.1km/h 40.5% 0in /  0.0mm
20:54 59.4 °F /  15.2 °C 35.6 °F /  2 °C 30in /  1014.4hPa Oeste 7.6mph /  12.2km/h 18.4mph /  29.6km/h 41% 0in /  0.0mm
20:59 59.4 °F /  15.2 °C 35.1 °F /  1.7 °C 30in /  1014.4hPa OSO 8.6mph /  13.9km/h 18mph /  29km/h 40.2% 0in /  0.0mm
21:04 59.4 °F /  15.2 °C 35.1 °F /  1.7 °C 30in /  1014.4hPa Oeste 9.2mph /  14.8km/h 18.4mph /  29.6km/h 40% 0in /  0.0mm
21:09 59.4 °F /  15.2 °C 35.1 °F /  1.7 °C 29.9in /  1014.1hPa Oeste 10.3mph /  16.6km/h 18.4mph /  29.6km/h 40% 0in /  0.0mm
21:14 59.4 °F /  15.2 °C 35.1 °F /  1.7 °C 29.9in /  1014.1hPa Oeste 11.2mph /  18km/h 18.4mph /  29.6km/h 40% 0in /  0.0mm
21:19 59.4 °F /  15.2 °C 35.1 °F /  1.7 °C 29.9in /  1014.1hPa Oeste 10.5mph /  16.9km/h 18.4mph /  29.6km/h 40% 0in /  0.0mm
21:24 59.4 °F /  15.2 °C 35.1 °F /  1.7 °C 29.9in /  1014.1hPa OSO 10mph /  16.1km/h 18.4mph /  29.6km/h 40% 0in /  0.0mm
21:29 59.4 °F /  15.2 °C 34.9 °F /  1.6 °C 29.9in /  1014.1hPa Oeste 9.6mph /  15.4km/h 18mph /  29km/h 40% 0in /  0.0mm
21:34 59.2 °F /  15.1 °C 34.9 °F /  1.6 °C 30in /  1014.4hPa OSO 9.2mph /  14.8km/h 17mph /  27.4km/h 40% 0in /  0.0mm
21:39 59.2 °F /  15.1 °C 34.9 °F /  1.6 °C 30in /  1014.4hPa OSO 8.8mph /  14.2km/h 16.1mph /  25.9km/h 40% 0in /  0.0mm
21:44 59.2 °F /  15.1 °C 34.9 °F /  1.6 °C 30in /  1014.4hPa OSO 8.5mph /  13.7km/h 14mph /  22.5km/h 40% 0in /  0.0mm
21:49 59 °F /  15 °C 34.9 °F /  1.6 °C 30in /  1014.5hPa OSO 7.9mph /  12.7km/h 12.7mph /  20.4km/h 40.4% 0in /  0.0mm
21:54 58.8 °F /  14.9 °C 35.2 °F /  1.8 °C 30in /  1014.5hPa OSO 7.4mph /  11.9km/h 13mph /  20.9km/h 41% 0in /  0.0mm
21:59 58.6 °F /  14.8 °C 35.1 °F /  1.7 °C 30in /  1014.5hPa Oeste 7.4mph /  11.9km/h 13mph /  20.9km/h 41% 0in /  0.0mm
22:04 58.6 °F /  14.8 °C 34.9 °F /  1.6 °C 30in /  1014.5hPa OSO 7.4mph /  11.9km/h 13mph /  20.9km/h 41% 0in /  0.0mm
22:09 58.5 °F /  14.7 °C 34.9 °F /  1.6 °C 30in /  1014.3hPa OSO 7.1mph /  11.4km/h 12.7mph /  20.4km/h 41% 0in /  0.0mm
22:14 58.5 °F /  14.7 °C 34.9 °F /  1.6 °C 30in /  1014.3hPa OSO 6.9mph /  11.1km/h 13mph /  20.9km/h 41% 0in /  0.0mm
22:19 58.5 °F /  14.7 °C 35.1 °F /  1.7 °C 30in /  1014.3hPa OSO 6mph /  9.7km/h 9.7mph /  15.6km/h 41.6% 0in /  0.0mm
22:24 58.3 °F /  14.6 °C 35.2 °F /  1.8 °C 30in /  1014.2hPa OSO 5.4mph /  8.7km/h 10mph /  16.1km/h 42% 0in /  0.0mm
22:29 58.1 °F /  14.5 °C 35.1 °F /  1.7 °C 30in /  1014.2hPa OSO 4.6mph /  7.4km/h 8.1mph /  13km/h 42% 0in /  0.0mm
22:34 58.1 °F /  14.5 °C 35.1 °F /  1.7 °C 30in /  1014.5hPa OSO 4mph /  6.5km/h 9.7mph /  15.6km/h 42% 0in /  0.0mm
22:39 57.9 °F /  14.4 °C 35.6 °F /  2 °C 30in /  1014.5hPa OSO 4mph /  6.5km/h 10mph /  16.1km/h 42.9% 0in /  0.0mm
22:44 57.9 °F /  14.4 °C 35.4 °F /  1.9 °C 30in /  1014.5hPa OSO 4mph /  6.5km/h 7.4mph /  11.9km/h 43% 0in /  0.0mm
22:49 57.7 °F /  14.3 °C 35.4 °F /  1.9 °C 30in /  1014.5hPa OSO 4.4mph /  7.1km/h 8.5mph /  13.7km/h 43% 0in /  0.0mm
22:54 57.6 °F /  14.2 °C 35.4 °F /  1.9 °C 30in /  1014.4hPa Oeste 4.7mph /  7.6km/h 9mph /  14.5km/h 43.2% 0in /  0.0mm
22:59 57.6 °F /  14.2 °C 35.6 °F /  2 °C 30in /  1014.4hPa Oeste 4.3mph /  6.9km/h 6mph /  9.7km/h 44% 0in /  0.0mm
23:04 57.4 °F /  14.1 °C 35.6 °F /  2 °C 30in /  1014.5hPa Oeste 4mph /  6.5km/h 6mph /  9.7km/h 44% 0in /  0.0mm
23:09 57 °F /  13.9 °C 35.4 °F /  1.9 °C 30in /  1014.5hPa Oeste 3.4mph /  5.4km/h 6mph /  9.7km/h 44% 0in /  0.0mm
23:14 57 °F /  13.9 °C 35.8 °F /  2.1 °C 30in /  1014.5hPa Oeste 2.9mph /  4.7km/h 6mph /  9.7km/h 44.8% 0in /  0.0mm
23:19 56.8 °F /  13.8 °C 35.8 °F /  2.1 °C 30in /  1014.5hPa Oeste 2.9mph /  4.7km/h 5mph /  8km/h 45% 0in /  0.0mm
23:24 56.7 °F /  13.7 °C 35.6 °F /  2 °C 30in /  1014.5hPa Oeste 2.9mph /  4.7km/h 5mph /  8km/h 45% 0in /  0.0mm
23:29 56.5 °F /  13.6 °C 35.8 °F /  2.1 °C 30in /  1014.5hPa SE 2.2mph /  3.6km/h 4.6mph /  7.4km/h 45.8% 0in /  0.0mm
23:34 56.3 °F /  13.5 °C 35.8 °F /  2.1 °C 30in /  1014.5hPa SE 1.8mph /  2.9km/h 5mph /  8km/h 46% 0in /  0.0mm
23:39 55.9 °F /  13.3 °C 35.8 °F /  2.1 °C 30in /  1014.5hPa SE 1.9mph /  3.1km/h 4mph /  6.4km/h 46.4% 0in /  0.0mm
23:44 55.9 °F /  13.3 °C 36.3 °F /  2.4 °C 30in /  1014.5hPa SO 2mph /  3.2km/h 8.5mph /  13.7km/h 47.6% 0in /  0.0mm
23:49 56.1 °F /  13.4 °C 36.7 °F /  2.6 °C 30in /  1014.5hPa OSO 2.6mph /  4.2km/h 9.2mph /  14.8km/h 48% 0in /  0.0mm
23:54 56.8 °F /  13.8 °C 37 °F /  2.8 °C 30in /  1014.4hPa SO 3.1mph /  5km/h 10.4mph /  16.7km/h 47.5% 0in /  0.0mm
23:59 57.4 °F /  14.1 °C 37.4 °F /  3 °C 30in /  1014.4hPa SO 4.8mph /  7.7km/h 11.5mph /  18.5km/h 47% 0in /  0.0mm
Murcia-Puente Tocinos, Espa?a
Compliments of Weather Underground - 3.25 mb

La estación de MeteoMurcia.com, publica sus datos en los siguientes proyectos:

Weather Underground PWS IMURCIAP2 Meteoclimatic www.awekas.at

W3Counter
Web Analytics